createdAt,value
2022-11-18T00:01:08.854Z,7.13
2022-11-18T00:03:36.066Z,6.20
2022-11-18T00:06:02.998Z,7.25
2022-11-18T00:08:29.537Z,7.45
2022-11-18T00:10:55.930Z,7.20
2022-11-18T00:13:40.747Z,8.27
2022-11-18T00:16:12.096Z,8.35
2022-11-18T00:18:39.469Z,7.85
2022-11-18T00:21:09.102Z,7.07
2022-11-18T00:23:36.224Z,8.77
2022-11-18T00:26:03.461Z,8.43
2022-11-18T00:28:30.790Z,9.35
2022-11-18T00:31:09.272Z,6.47
2022-11-18T00:33:39.437Z,11.05
2022-11-18T00:36:08.012Z,7.07
2022-11-18T00:38:34.418Z,13.82
2022-11-18T00:41:02.969Z,13.20
2022-11-18T00:43:29.723Z,8.27
2022-11-18T00:45:56.444Z,10.93
2022-11-18T00:48:23.234Z,11.25
2022-11-18T00:50:50.867Z,6.18
2022-11-18T00:53:18.095Z,9.88
2022-11-18T00:55:44.662Z,9.75
2022-11-18T00:58:14.245Z,7.55
2022-11-18T01:00:50.010Z,7.82
2022-11-18T01:03:16.590Z,7.55
2022-11-18T01:05:43.501Z,10.50
2022-11-18T01:08:11.874Z,8.30
2022-11-18T01:10:39.380Z,7.00
2022-11-18T01:13:19.282Z,8.20
2022-11-18T01:15:57.074Z,8.73
2022-11-18T01:18:28.521Z,10.45
2022-11-18T01:21:00.527Z,10.07
2022-11-18T01:23:27.141Z,12.88
2022-11-18T01:25:55.262Z,9.00
2022-11-18T01:28:23.812Z,9.60
2022-11-18T01:30:50.683Z,12.20
2022-11-18T01:33:17.176Z,12.20
2022-11-18T01:35:44.759Z,10.20
2022-11-18T01:38:13.791Z,10.73
2022-11-18T01:40:40.886Z,12.65
2022-11-18T01:43:13.756Z,10.77
2022-11-18T01:45:42.880Z,12.68
2022-11-18T01:48:16.125Z,11.52
2022-11-18T01:50:49.389Z,8.45
2022-11-18T01:53:21.738Z,12.35
2022-11-18T01:55:50.756Z,12.10
2022-11-18T01:58:39.034Z,14.20
2022-11-18T02:01:07.477Z,12.55
2022-11-18T02:03:34.924Z,8.98
2022-11-18T02:06:03.817Z,8.70
2022-11-18T02:08:31.606Z,7.93
2022-11-18T02:10:58.016Z,12.95
2022-11-18T02:13:25.040Z,10.50
2022-11-18T02:16:15.832Z,14.25
2022-11-18T02:18:53.917Z,9.80
2022-11-18T02:21:29.565Z,13.98
2022-11-18T02:24:08.086Z,13.27
2022-11-18T02:26:57.854Z,13.25
2022-11-18T02:29:29.419Z,12.70
2022-11-18T02:32:03.143Z,10.75
2022-11-18T02:34:47.874Z,12.90
2022-11-18T02:37:36.714Z,16.63
2022-11-18T02:40:25.006Z,12.68
2022-11-18T02:43:16.020Z,12.88
2022-11-18T02:45:46.420Z,9.98
2022-11-18T02:48:14.976Z,9.88
2022-11-18T02:50:46.743Z,10.57
2022-11-18T02:53:16.610Z,15.20
2022-11-18T02:55:44.293Z,12.95
2022-11-18T02:58:13.018Z,14.07
2022-11-18T03:00:40.085Z,17.73
2022-11-18T03:03:27.050Z,14.15
2022-11-18T03:06:09.227Z,13.50
2022-11-18T03:08:45.313Z,14.15
2022-11-18T03:11:18.400Z,18.73
2022-11-18T03:14:26.035Z,18.13
2022-11-18T03:17:09.505Z,13.70
2022-11-18T03:19:50.934Z,22.98
2022-11-18T03:22:24.398Z,13.52
2022-11-18T03:25:08.069Z,13.95
2022-11-18T03:27:57.889Z,17.70
2022-11-18T03:30:25.453Z,19.38
2022-11-18T03:32:58.928Z,22.00
2022-11-18T03:35:30.569Z,16.20
2022-11-18T03:38:05.011Z,20.02
2022-11-18T03:40:33.478Z,21.98
2022-11-18T03:43:08.872Z,22.13
2022-11-18T03:45:40.814Z,20.40
2022-11-18T03:48:17.497Z,21.45
2022-11-18T03:51:13.418Z,22.17
2022-11-18T03:53:45.699Z,19.17
2022-11-18T03:56:19.385Z,20.60
2022-11-18T03:58:51.010Z,13.73
2022-11-18T04:01:36.622Z,16.02
2022-11-18T04:04:03.305Z,18.98
2022-11-18T04:06:46.230Z,20.65
2022-11-18T04:09:19.963Z,15.43
2022-11-18T04:12:03.329Z,19.60
2022-11-18T04:14:36.566Z,21.52
2022-11-18T04:17:19.694Z,23.83
2022-11-18T04:19:46.568Z,24.30
2022-11-18T04:22:13.397Z,18.00
2022-11-18T04:24:40.370Z,21.67
2022-11-18T04:27:07.191Z,16.85
2022-11-18T04:29:34.047Z,15.70
2022-11-18T04:32:01.619Z,18.40
2022-11-18T04:34:28.438Z,24.13
2022-11-18T04:36:55.150Z,20.77
2022-11-18T04:39:21.611Z,18.52
2022-11-18T04:41:57.115Z,19.25
2022-11-18T04:44:28.545Z,14.18
2022-11-18T04:46:56.995Z,24.80
2022-11-18T04:49:24.597Z,17.05
2022-11-18T04:51:52.170Z,22.48
2022-11-18T04:54:19.337Z,21.92
2022-11-18T04:56:49.389Z,23.17
2022-11-18T04:59:19.631Z,20.75
2022-11-18T05:01:46.586Z,22.13
2022-11-18T05:04:15.919Z,17.83
2022-11-18T05:06:42.525Z,22.88
2022-11-18T05:09:09.428Z,17.42
2022-11-18T05:11:54.268Z,25.40
2022-11-18T05:14:20.977Z,23.25
2022-11-18T05:16:47.543Z,22.48
2022-11-18T05:19:13.995Z,22.73
2022-11-18T05:21:40.409Z,19.92
2022-11-18T05:24:07.063Z,21.65
2022-11-18T05:26:33.590Z,21.33
2022-11-18T05:29:00.043Z,19.40
2022-11-18T05:31:26.496Z,22.85
2022-11-18T05:33:52.910Z,26.73
2022-11-18T05:36:20.881Z,21.17
2022-11-18T05:38:47.913Z,23.02
2022-11-18T05:41:33.137Z,23.75
2022-11-18T05:43:59.663Z,20.65
2022-11-18T05:46:27.098Z,22.75
2022-11-18T05:48:53.509Z,24.67
2022-11-18T05:51:20.080Z,24.23
2022-11-18T05:53:48.738Z,25.02
2022-11-18T05:56:20.652Z,27.40
2022-11-18T05:58:47.342Z,31.15
2022-11-18T06:01:18.143Z,22.35
2022-11-18T06:03:44.953Z,26.98
2022-11-18T06:06:15.898Z,24.40
2022-11-18T06:08:48.055Z,28.70
2022-11-18T06:11:17.720Z,22.85
2022-11-18T06:13:50.545Z,24.70
2022-11-18T06:16:21.482Z,28.95
2022-11-18T06:18:48.043Z,31.42
2022-11-18T06:21:14.732Z,24.05
2022-11-18T06:23:42.814Z,30.55
2022-11-18T06:26:09.797Z,28.52
2022-11-18T06:28:36.741Z,28.85
2022-11-18T06:31:03.251Z,27.80
2022-11-18T06:33:29.728Z,27.67
2022-11-18T06:35:56.165Z,27.00
2022-11-18T06:38:25.634Z,29.10
2022-11-18T06:40:52.320Z,29.48
2022-11-18T06:43:37.174Z,31.05
2022-11-18T06:46:23.837Z,26.73
2022-11-18T06:48:50.952Z,33.80
2022-11-18T06:51:17.545Z,24.33
2022-11-18T06:53:44.189Z,28.52
2022-11-18T06:56:14.050Z,35.72
2022-11-18T06:58:40.678Z,24.17
2022-11-18T07:01:20.321Z,31.00
2022-11-18T07:03:47.283Z,34.53
2022-11-18T07:06:16.410Z,31.55
2022-11-18T07:08:43.803Z,30.08
2022-11-18T07:11:13.664Z,29.73
2022-11-18T07:13:43.612Z,30.38
2022-11-18T07:16:13.527Z,27.88
2022-11-18T07:18:41.706Z,24.95
2022-11-18T07:21:11.501Z,28.60
2022-11-18T07:23:38.119Z,22.02
2022-11-18T07:26:05.466Z,27.00
2022-11-18T07:28:32.607Z,24.13
2022-11-18T07:31:13.915Z,26.80
2022-11-18T07:33:41.435Z,26.10
2022-11-18T07:36:17.660Z,24.50
2022-11-18T07:38:44.366Z,27.08
2022-11-18T07:41:19.413Z,28.77
2022-11-18T07:43:46.391Z,24.77
2022-11-18T07:46:13.913Z,27.85
2022-11-18T07:48:40.778Z,26.30
2022-11-18T07:51:08.059Z,32.13
2022-11-18T07:53:35.639Z,26.10
2022-11-18T07:56:02.824Z,23.35
2022-11-18T07:58:29.603Z,25.08
2022-11-18T08:00:56.079Z,25.58
2022-11-18T08:03:28.842Z,21.88
2022-11-18T08:06:02.931Z,25.60
2022-11-18T08:08:29.734Z,28.85
2022-11-18T08:10:57.432Z,24.90
2022-11-18T08:13:24.586Z,25.88
2022-11-18T08:15:51.207Z,22.70
2022-11-18T08:18:17.723Z,22.85
2022-11-18T08:20:47.767Z,29.10
2022-11-18T08:23:15.077Z,25.67
2022-11-18T08:25:43.036Z,25.13
2022-11-18T08:28:10.794Z,25.73
2022-11-18T08:30:37.650Z,29.83
2022-11-18T08:33:04.583Z,22.45
2022-11-18T08:35:33.340Z,30.05
2022-11-18T08:38:00.231Z,27.80
2022-11-18T08:40:26.905Z,24.63
2022-11-18T08:42:53.320Z,30.38
2022-11-18T08:45:20.120Z,34.00
2022-11-18T08:47:46.503Z,29.30
2022-11-18T08:50:12.972Z,31.05
2022-11-18T08:52:39.424Z,24.55
2022-11-18T08:55:06.349Z,27.48
2022-11-18T08:57:32.948Z,26.90
2022-11-18T08:59:59.311Z,28.63
2022-11-18T09:02:25.662Z,24.60
2022-11-18T09:04:52.957Z,30.35
2022-11-18T09:07:21.587Z,25.55
2022-11-18T09:09:48.418Z,28.50
2022-11-18T09:12:15.217Z,39.13
2022-11-18T09:17:31.706Z,30.40
2022-11-18T09:19:58.142Z,32.05
2022-11-18T09:22:24.615Z,36.28
2022-11-18T09:24:51.456Z,32.97
2022-11-18T09:27:18.245Z,31.90
2022-11-18T09:29:45.286Z,29.52
2022-11-18T09:32:12.020Z,30.63
2022-11-18T09:34:38.434Z,33.00
2022-11-18T09:37:06.509Z,29.10
2022-11-18T09:39:36.936Z,26.25
2022-11-18T09:42:28.356Z,26.02
2022-11-18T09:44:57.559Z,35.60
2022-11-18T09:47:31.953Z,31.33
2022-11-18T09:50:47.214Z,37.28
2022-11-18T09:53:26.198Z,37.55
2022-11-18T09:55:54.583Z,40.58
2022-11-18T09:58:34.921Z,37.75
2022-11-18T10:01:03.316Z,40.83
2022-11-18T10:03:31.901Z,35.83
2022-11-18T10:06:02.873Z,33.85
2022-11-18T10:08:39.905Z,40.40
2022-11-18T10:11:14.838Z,29.38
2022-11-18T10:14:05.596Z,28.25
2022-11-18T10:16:42.238Z,25.52
2022-11-18T10:19:26.340Z,22.05
2022-11-18T10:21:59.669Z,24.67
2022-11-18T10:24:48.995Z,21.35
2022-11-18T10:27:17.119Z,22.92
2022-11-18T10:29:45.881Z,22.17
2022-11-18T10:32:15.370Z,26.08
2022-11-18T10:34:51.563Z,26.85
2022-11-18T10:37:45.452Z,23.80
2022-11-18T10:40:24.786Z,21.33
2022-11-18T10:42:51.339Z,13.13
2022-11-18T10:45:23.606Z,11.15
2022-11-18T10:48:14.652Z,11.90
2022-11-18T10:50:51.877Z,15.90
2022-11-18T10:53:36.197Z,15.45
2022-11-18T10:56:08.943Z,17.13
2022-11-18T10:58:37.719Z,20.38
2022-11-18T11:01:20.015Z,17.08
2022-11-18T11:04:02.109Z,15.82
2022-11-18T11:06:31.033Z,13.05
2022-11-18T11:09:13.897Z,13.68
2022-11-18T11:11:43.617Z,14.65
2022-11-18T11:14:24.441Z,17.88
2022-11-18T11:17:07.145Z,16.77
2022-11-18T11:19:42.439Z,15.73
2022-11-18T11:22:11.424Z,16.50
2022-11-18T11:24:38.122Z,13.27
2022-11-18T11:30:09.480Z,14.75
2022-11-18T11:32:46.072Z,15.63
2022-11-18T11:35:22.233Z,17.63
2022-11-18T11:37:55.755Z,12.18
2022-11-18T11:40:42.574Z,11.50
2022-11-18T11:43:26.756Z,18.13
2022-11-18T11:46:09.971Z,15.10
2022-11-18T11:48:55.206Z,15.88
2022-11-18T11:51:45.088Z,12.80
2022-11-18T11:54:20.623Z,9.27
2022-11-18T11:57:03.974Z,8.27
2022-11-18T11:59:43.539Z,9.07
2022-11-18T12:02:32.236Z,7.88
2022-11-18T12:05:07.981Z,13.57
2022-11-18T12:07:45.397Z,8.68
2022-11-18T12:10:28.649Z,10.57
2022-11-18T12:13:25.814Z,12.55
2022-11-18T12:16:24.471Z,14.05
2022-11-18T12:19:12.214Z,11.85
2022-11-18T12:21:45.434Z,11.48
2022-11-18T12:24:40.082Z,12.18
2022-11-18T12:27:19.992Z,10.65
2022-11-18T12:29:49.334Z,11.60
2022-11-18T12:32:47.953Z,17.67
2022-11-18T12:35:27.032Z,13.65
2022-11-18T12:37:53.363Z,10.38
2022-11-18T12:40:40.547Z,11.15
2022-11-18T12:43:48.396Z,9.73
2022-11-18T12:46:26.735Z,13.07
2022-11-18T12:48:53.249Z,14.45
2022-11-18T12:51:19.719Z,14.38
2022-11-18T12:53:48.774Z,14.70
2022-11-18T12:56:18.247Z,18.88
2022-11-18T12:58:50.332Z,17.95
2022-11-18T13:01:19.625Z,16.88
2022-11-18T13:03:46.567Z,14.43
2022-11-18T13:06:23.147Z,16.00
2022-11-18T13:08:56.097Z,11.25
2022-11-18T13:11:41.412Z,11.95
2022-11-18T13:14:34.697Z,11.27
2022-11-18T13:17:19.949Z,11.35
2022-11-18T13:19:56.194Z,20.27
2022-11-18T13:22:41.547Z,17.52
2022-11-18T13:25:26.599Z,12.50
2022-11-18T13:28:03.327Z,15.68
2022-11-18T13:30:32.736Z,12.73
2022-11-18T13:32:59.431Z,16.30
2022-11-18T13:35:27.331Z,14.70
2022-11-18T13:37:55.706Z,17.08
2022-11-18T13:40:28.919Z,16.83
2022-11-18T13:42:55.643Z,14.30
2022-11-18T13:45:27.469Z,16.10
2022-11-18T13:47:57.597Z,10.68
2022-11-18T13:50:41.015Z,14.38
2022-11-18T13:53:22.579Z,15.90
2022-11-18T13:55:55.873Z,14.40
2022-11-18T13:59:15.681Z,17.45
2022-11-18T14:01:33.789Z,15.77
2022-11-18T14:04:18.919Z,14.80
2022-11-18T14:06:45.480Z,14.65
2022-11-18T14:09:29.857Z,16.73
2022-11-18T14:12:14.432Z,17.73
2022-11-18T14:14:43.090Z,18.40
2022-11-18T14:17:26.156Z,17.83
2022-11-18T14:19:54.973Z,22.13
2022-11-18T14:22:24.848Z,18.55
2022-11-18T14:24:59.280Z,21.20
2022-11-18T14:27:44.663Z,21.88
2022-11-18T14:30:24.245Z,23.05
2022-11-18T14:33:05.827Z,24.83
2022-11-18T14:35:34.828Z,21.92
2022-11-18T14:38:35.386Z,17.80
2022-11-18T14:41:03.260Z,17.48
2022-11-18T14:43:30.982Z,19.10
2022-11-18T14:45:59.836Z,18.92
2022-11-18T14:48:32.288Z,20.00
2022-11-18T14:50:59.775Z,18.83
2022-11-18T14:53:26.407Z,15.45
2022-11-18T14:55:54.752Z,22.67
2022-11-18T14:58:21.116Z,22.15
2022-11-18T15:00:49.062Z,21.33
2022-11-18T15:03:15.569Z,23.70
2022-11-18T15:05:42.372Z,25.92
2022-11-18T15:08:08.964Z,18.00
2022-11-18T15:10:35.917Z,21.55
2022-11-18T15:13:02.321Z,23.00
2022-11-18T15:15:29.031Z,17.85
2022-11-18T15:17:55.414Z,21.23
2022-11-18T15:20:22.895Z,18.23
2022-11-18T15:22:49.354Z,16.45
2022-11-18T15:25:15.937Z,13.57
2022-11-18T15:27:42.421Z,16.30
2022-11-18T15:30:11.515Z,19.80
2022-11-18T15:32:37.930Z,16.90
2022-11-18T15:35:04.436Z,18.35
2022-11-18T15:37:30.904Z,24.67
2022-11-18T15:39:57.309Z,20.95
2022-11-18T15:42:23.762Z,18.35
2022-11-18T15:44:50.240Z,17.67
2022-11-18T15:47:16.729Z,18.25
2022-11-18T15:49:45.192Z,18.27
2022-11-18T15:52:12.331Z,18.38
2022-11-18T15:54:39.531Z,19.88
2022-11-18T15:57:05.908Z,21.00
2022-11-18T15:59:32.324Z,22.13
2022-11-18T16:01:58.696Z,29.70
2022-11-18T16:04:25.146Z,27.33
2022-11-18T16:06:51.801Z,24.75
2022-11-18T16:09:18.796Z,26.58
2022-11-18T16:12:04.202Z,22.23
2022-11-18T16:14:30.666Z,23.27
2022-11-18T16:16:57.488Z,20.25
2022-11-18T16:19:25.763Z,22.35
2022-11-18T16:21:55.183Z,22.63
2022-11-18T16:24:25.424Z,28.70
2022-11-18T16:26:51.969Z,27.38
2022-11-18T16:29:19.330Z,24.08
2022-11-18T16:31:50.916Z,22.55
2022-11-18T16:34:26.647Z,20.40
2022-11-18T16:36:55.391Z,35.72
2022-11-18T16:39:24.997Z,21.88
2022-11-18T16:41:53.355Z,23.35
2022-11-18T16:44:19.748Z,25.55
2022-11-18T16:46:48.619Z,22.85
2022-11-18T16:49:17.078Z,25.00
2022-11-18T16:51:45.923Z,21.90
2022-11-18T16:54:18.506Z,22.48
2022-11-18T16:56:46.053Z,24.88
2022-11-18T16:59:15.296Z,21.55
2022-11-18T17:01:42.114Z,23.60
2022-11-18T17:04:09.321Z,18.02
2022-11-18T17:06:35.771Z,25.73
2022-11-18T17:09:02.188Z,24.05
2022-11-18T17:11:28.568Z,26.60
2022-11-18T17:13:58.079Z,26.63
2022-11-18T17:16:25.794Z,24.52
2022-11-18T17:18:59.763Z,28.38
2022-11-18T17:21:28.984Z,23.30
2022-11-18T17:23:56.236Z,24.40
2022-11-18T17:26:27.875Z,31.15
2022-11-18T17:28:57.631Z,25.38
2022-11-18T17:31:25.285Z,23.73
2022-11-18T17:33:53.432Z,20.80
2022-11-18T17:36:22.198Z,25.10
2022-11-18T17:38:50.407Z,28.48
2022-11-18T17:41:37.971Z,24.75
2022-11-18T17:44:06.423Z,25.70
2022-11-18T17:46:37.738Z,30.92
2022-11-18T17:49:07.252Z,22.13
2022-11-18T17:51:33.669Z,27.15
2022-11-18T17:54:00.126Z,27.27
2022-11-18T17:56:26.543Z,27.48
2022-11-18T17:58:53.634Z,28.40
2022-11-18T18:01:21.479Z,28.77
2022-11-18T18:03:48.281Z,27.08
2022-11-18T18:06:15.406Z,26.65
2022-11-18T18:08:42.856Z,25.25
2022-11-18T18:11:15.523Z,27.42
2022-11-18T18:14:01.545Z,28.90
2022-11-18T18:16:29.603Z,27.23
2022-11-18T18:18:57.595Z,29.98
2022-11-18T18:21:24.104Z,27.23
2022-11-18T18:23:50.755Z,27.83
2022-11-18T18:26:17.561Z,29.70
2022-11-18T18:28:43.969Z,28.52
2022-11-18T18:31:12.203Z,33.13
2022-11-18T18:33:42.608Z,30.30
2022-11-18T18:36:12.413Z,34.42
2022-11-18T18:38:39.862Z,33.92
2022-11-18T18:41:12.819Z,26.17
2022-11-18T18:43:39.508Z,31.42
2022-11-18T18:46:29.813Z,29.58
2022-11-18T18:49:10.159Z,27.52
2022-11-18T18:51:41.997Z,27.70
2022-11-18T18:54:15.870Z,28.33
2022-11-18T18:56:42.904Z,22.95
2022-11-18T18:59:10.130Z,31.65
2022-11-18T19:01:38.154Z,27.38
2022-11-18T19:04:06.412Z,29.90
2022-11-18T19:09:24.942Z,30.10
2022-11-18T19:12:10.235Z,28.55
2022-11-18T19:14:36.711Z,24.33
2022-11-18T19:17:10.238Z,29.42
2022-11-18T19:19:57.644Z,26.10
2022-11-18T19:22:24.955Z,26.67
2022-11-18T19:24:51.718Z,23.90
2022-11-18T19:27:19.431Z,26.95
2022-11-18T19:29:45.928Z,28.20
2022-11-18T19:32:12.703Z,24.35
2022-11-18T19:34:39.144Z,27.00
2022-11-18T19:37:05.633Z,29.08
2022-11-18T19:39:32.104Z,27.98
2022-11-18T19:41:58.906Z,27.27
2022-11-18T19:44:25.288Z,28.45
2022-11-18T19:46:51.646Z,26.48
2022-11-18T19:49:18.357Z,29.80
2022-11-18T19:51:45.103Z,22.73
2022-11-18T19:54:11.506Z,28.00
2022-11-18T19:56:37.861Z,29.30
2022-11-18T19:59:04.304Z,28.33
2022-11-18T20:01:31.498Z,27.27
2022-11-18T20:04:01.809Z,24.55
2022-11-18T20:06:28.640Z,27.38
2022-11-18T20:08:55.869Z,27.92
2022-11-18T20:11:23.326Z,27.40
2022-11-18T20:13:50.695Z,25.52
2022-11-18T20:16:23.474Z,26.38
2022-11-18T20:19:13.315Z,28.08
2022-11-18T20:21:43.230Z,27.30
2022-11-18T20:24:15.719Z,28.70
2022-11-18T20:26:43.057Z,26.65
2022-11-18T20:29:09.859Z,22.98
2022-11-18T20:31:37.214Z,23.15
2022-11-18T20:34:04.320Z,22.88
2022-11-18T20:36:33.622Z,27.25
2022-11-18T20:39:03.181Z,21.95
2022-11-18T20:41:31.130Z,21.67
2022-11-18T20:43:58.151Z,24.40
2022-11-18T20:46:24.967Z,22.85
2022-11-18T20:48:51.775Z,21.05
2022-11-18T20:51:23.723Z,23.17
2022-11-18T20:53:51.552Z,22.58
2022-11-18T20:56:20.058Z,20.00
2022-11-18T20:58:47.125Z,22.10
2022-11-18T21:01:22.116Z,22.35
2022-11-18T21:03:57.463Z,21.27
2022-11-18T21:06:28.599Z,23.58
2022-11-18T21:08:59.785Z,23.67
2022-11-18T21:11:27.104Z,21.95
2022-11-18T21:14:11.961Z,21.42
2022-11-18T21:16:39.634Z,23.98
2022-11-18T21:19:06.020Z,22.60
2022-11-18T21:21:44.547Z,21.00
2022-11-18T21:24:32.247Z,22.98
2022-11-18T21:27:00.184Z,22.92
2022-11-18T21:29:28.967Z,24.55
2022-11-18T21:31:55.842Z,24.63
2022-11-18T21:34:22.655Z,24.77
2022-11-18T21:36:54.362Z,20.48
2022-11-18T21:39:22.638Z,26.52
2022-11-18T21:41:54.909Z,24.15
2022-11-18T21:44:21.985Z,23.08
2022-11-18T21:46:48.380Z,25.27
2022-11-18T21:49:14.710Z,25.25
2022-11-18T21:51:41.163Z,24.20
2022-11-18T21:54:08.690Z,22.83
2022-11-18T21:56:35.228Z,23.55
2022-11-18T21:59:02.688Z,25.65
2022-11-18T22:01:33.295Z,24.45
2022-11-18T22:04:01.998Z,24.30
2022-11-18T22:06:30.305Z,25.20
2022-11-18T22:08:56.926Z,22.60
2022-11-18T22:11:24.014Z,22.75
2022-11-18T22:13:52.021Z,24.00
2022-11-18T22:16:20.475Z,23.10
2022-11-18T22:18:53.004Z,27.05
2022-11-18T22:21:21.852Z,21.85
2022-11-18T22:23:48.791Z,24.63
2022-11-18T22:26:20.431Z,24.50
2022-11-18T22:28:47.968Z,25.33
2022-11-18T22:31:17.453Z,24.90
2022-11-18T22:33:43.956Z,26.95
2022-11-18T22:36:13.667Z,25.02
2022-11-18T22:38:44.298Z,25.92
2022-11-18T22:41:34.659Z,27.83
2022-11-18T22:44:06.943Z,29.35
2022-11-18T22:46:35.209Z,29.15
2022-11-18T22:49:01.815Z,25.90
2022-11-18T22:51:28.513Z,26.88
2022-11-18T22:54:15.924Z,24.13
2022-11-18T22:56:41.764Z,25.58
2022-11-18T22:59:10.132Z,27.92
2022-11-18T23:01:37.038Z,25.90
2022-11-18T23:04:03.646Z,24.30
2022-11-18T23:06:30.044Z,26.40
2022-11-18T23:08:56.447Z,27.58
2022-11-18T23:11:41.196Z,23.80
2022-11-18T23:14:10.776Z,25.80
2022-11-18T23:16:39.444Z,24.83
2022-11-18T23:19:10.599Z,26.95
2022-11-18T23:21:37.339Z,27.00
2022-11-18T23:24:04.167Z,29.02
2022-11-18T23:26:31.621Z,28.02
2022-11-18T23:28:57.969Z,26.15
2022-11-18T23:31:26.584Z,28.77
2022-11-18T23:33:54.837Z,29.77
2022-11-18T23:36:21.362Z,31.30
2022-11-18T23:38:48.384Z,34.10
2022-11-18T23:41:16.543Z,29.17
2022-11-18T23:43:44.921Z,30.02
2022-11-18T23:46:11.274Z,31.35
2022-11-18T23:48:40.011Z,31.33
2022-11-18T23:51:08.795Z,32.42
2022-11-18T23:53:36.442Z,32.30
2022-11-18T23:56:05.524Z,27.58
2022-11-18T23:58:32.036Z,27.23
